Terminal Aerodrome Forecast
Issued by NWS

Home | Current Version | Previous Version | Text Only | Print | Product List | Glossary On
Versions: 1 2 3 4 5 6 7 8 9 10 11 12 13 14 15 16 17 18 19 20 21 22 23
000
FTAK31 PAJN 110500
TAFAYA
TAF
PAYA 110529Z 1106/1206 14007KT P6SM SCT025 OVC060
     FM110800 11011KT P6SM -RA SCT007 OVC025
     FM111000 10011KT 3SM RA BR SCT007 OVC015
     FM111500 09010KT 2SM +RA BR BKN008 OVC012
     FM112100 09009KT 4SM RA BR SCT005 OVC012
     FM120300 09009KT 6SM -RA BR SCT005 OVC012
      AMD LTD TO CLD VIS AND WIND 1106/1110=

USA.gov is the U.S. government's official web portal to all federal, state and local government web resources and services.